sensor_id;sensor_type;location;lat;lon;timestamp;P1;durP1;ratioP1;P2;durP2;ratioP2
13493;SDS011;6819;50.886;4.332;2022-11-20T00:00:57;40.13;;;15.65;;
13493;SDS011;6819;50.886;4.332;2022-11-20T00:03:29;36.30;;;16.83;;
13493;SDS011;6819;50.886;4.332;2022-11-20T00:05:59;35.75;;;16.55;;
13493;SDS011;6819;50.886;4.332;2022-11-20T00:08:25;46.08;;;17.55;;
13493;SDS011;6819;50.886;4.332;2022-11-20T00:10:51;42.88;;;16.38;;
13493;SDS011;6819;50.886;4.332;2022-11-20T00:13:17;37.17;;;16.67;;
13493;SDS011;6819;50.886;4.332;2022-11-20T00:15:43;34.10;;;16.98;;
13493;SDS011;6819;50.886;4.332;2022-11-20T00:18:09;41.33;;;16.80;;
13493;SDS011;6819;50.886;4.332;2022-11-20T00:20:35;38.03;;;16.52;;
13493;SDS011;6819;50.886;4.332;2022-11-20T00:23:01;40.22;;;18.95;;
13493;SDS011;6819;50.886;4.332;2022-11-20T00:25:27;44.60;;;17.77;;
13493;SDS011;6819;50.886;4.332;2022-11-20T00:27:53;42.40;;;16.23;;
13493;SDS011;6819;50.886;4.332;2022-11-20T00:30:19;43.65;;;17.48;;
13493;SDS011;6819;50.886;4.332;2022-11-20T00:32:45;39.67;;;16.20;;
13493;SDS011;6819;50.886;4.332;2022-11-20T00:35:11;45.38;;;18.45;;
13493;SDS011;6819;50.886;4.332;2022-11-20T00:37:37;50.50;;;17.67;;
13493;SDS011;6819;50.886;4.332;2022-11-20T00:40:03;40.80;;;18.58;;
13493;SDS011;6819;50.886;4.332;2022-11-20T00:42:29;44.92;;;17.67;;
13493;SDS011;6819;50.886;4.332;2022-11-20T00:44:57;44.17;;;19.60;;
13493;SDS011;6819;50.886;4.332;2022-11-20T00:47:23;49.08;;;19.27;;
13493;SDS011;6819;50.886;4.332;2022-11-20T00:49:49;43.45;;;17.75;;
13493;SDS011;6819;50.886;4.332;2022-11-20T00:52:15;45.70;;;17.73;;
13493;SDS011;6819;50.886;4.332;2022-11-20T00:54:41;42.75;;;18.23;;
13493;SDS011;6819;50.886;4.332;2022-11-20T00:57:07;39.28;;;17.80;;
13493;SDS011;6819;50.886;4.332;2022-11-20T00:59:33;39.45;;;17.83;;
13493;SDS011;6819;50.886;4.332;2022-11-20T01:01:59;47.83;;;19.10;;
13493;SDS011;6819;50.886;4.332;2022-11-20T01:04:25;45.45;;;18.30;;
13493;SDS011;6819;50.886;4.332;2022-11-20T01:06:51;40.00;;;18.55;;
13493;SDS011;6819;50.886;4.332;2022-11-20T01:09:17;42.40;;;18.63;;
13493;SDS011;6819;50.886;4.332;2022-11-20T01:11:44;38.42;;;18.58;;
13493;SDS011;6819;50.886;4.332;2022-11-20T01:14:11;43.95;;;18.63;;
13493;SDS011;6819;50.886;4.332;2022-11-20T01:16:39;42.65;;;19.00;;
13493;SDS011;6819;50.886;4.332;2022-11-20T01:19:07;46.20;;;19.77;;
13493;SDS011;6819;50.886;4.332;2022-11-20T01:21:34;47.90;;;19.40;;
13493;SDS011;6819;50.886;4.332;2022-11-20T01:24:01;42.55;;;18.38;;
13493;SDS011;6819;50.886;4.332;2022-11-20T01:26:29;49.33;;;19.85;;
13493;SDS011;6819;50.886;4.332;2022-11-20T01:28:55;38.65;;;16.88;;
13493;SDS011;6819;50.886;4.332;2022-11-20T01:31:23;43.15;;;18.65;;
13493;SDS011;6819;50.886;4.332;2022-11-20T01:33:50;36.58;;;17.55;;
13493;SDS011;6819;50.886;4.332;2022-11-20T01:36:16;40.95;;;17.83;;
13493;SDS011;6819;50.886;4.332;2022-11-20T01:38:42;40.75;;;17.70;;
13493;SDS011;6819;50.886;4.332;2022-11-20T01:41:09;35.80;;;16.77;;
13493;SDS011;6819;50.886;4.332;2022-11-20T01:43:35;41.65;;;17.73;;
13493;SDS011;6819;50.886;4.332;2022-11-20T01:46:14;38.90;;;17.75;;
13493;SDS011;6819;50.886;4.332;2022-11-20T01:53:52;41.03;;;19.50;;
13493;SDS011;6819;50.886;4.332;2022-11-20T01:56:19;38.03;;;17.40;;
13493;SDS011;6819;50.886;4.332;2022-11-20T01:58:48;40.00;;;18.00;;
13493;SDS011;6819;50.886;4.332;2022-11-20T02:01:15;35.42;;;17.17;;
13493;SDS011;6819;50.886;4.332;2022-11-20T02:03:41;39.00;;;17.55;;
13493;SDS011;6819;50.886;4.332;2022-11-20T02:06:10;37.75;;;17.70;;
13493;SDS011;6819;50.886;4.332;2022-11-20T02:08:37;39.17;;;17.80;;
13493;SDS011;6819;50.886;4.332;2022-11-20T02:11:03;42.17;;;18.02;;
13493;SDS011;6819;50.886;4.332;2022-11-20T02:13:29;43.75;;;19.20;;
13493;SDS011;6819;50.886;4.332;2022-11-20T02:18:43;41.80;;;19.50;;
13493;SDS011;6819;50.886;4.332;2022-11-20T02:26:16;41.70;;;18.75;;
13493;SDS011;6819;50.886;4.332;2022-11-20T02:28:43;40.40;;;17.38;;
13493;SDS011;6819;50.886;4.332;2022-11-20T02:31:09;39.55;;;17.33;;
13493;SDS011;6819;50.886;4.332;2022-11-20T02:33:35;40.38;;;17.40;;
13493;SDS011;6819;50.886;4.332;2022-11-20T02:36:01;45.33;;;17.58;;
13493;SDS011;6819;50.886;4.332;2022-11-20T02:38:27;35.80;;;16.98;;
13493;SDS011;6819;50.886;4.332;2022-11-20T02:40:53;42.53;;;19.58;;
13493;SDS011;6819;50.886;4.332;2022-11-20T02:43:19;38.30;;;16.83;;
13493;SDS011;6819;50.886;4.332;2022-11-20T02:45:45;42.45;;;17.70;;
13493;SDS011;6819;50.886;4.332;2022-11-20T02:48:11;42.25;;;17.60;;
13493;SDS011;6819;50.886;4.332;2022-11-20T02:50:38;36.83;;;16.60;;
13493;SDS011;6819;50.886;4.332;2022-11-20T02:53:04;48.30;;;19.27;;
13493;SDS011;6819;50.886;4.332;2022-11-20T02:55:30;35.70;;;16.88;;
13493;SDS011;6819;50.886;4.332;2022-11-20T02:57:56;44.13;;;17.73;;
13493;SDS011;6819;50.886;4.332;2022-11-20T03:00:22;42.67;;;18.77;;
13493;SDS011;6819;50.886;4.332;2022-11-20T03:02:49;39.03;;;17.50;;
13493;SDS011;6819;50.886;4.332;2022-11-20T03:05:15;45.15;;;17.35;;
13493;SDS011;6819;50.886;4.332;2022-11-20T03:07:41;41.70;;;17.75;;
13493;SDS011;6819;50.886;4.332;2022-11-20T03:10:07;41.55;;;15.85;;
13493;SDS011;6819;50.886;4.332;2022-11-20T03:12:33;41.40;;;16.05;;
13493;SDS011;6819;50.886;4.332;2022-11-20T03:14:59;38.08;;;16.73;;
13493;SDS011;6819;50.886;4.332;2022-11-20T03:17:25;38.10;;;15.55;;
13493;SDS011;6819;50.886;4.332;2022-11-20T03:19:51;34.85;;;15.13;;
13493;SDS011;6819;50.886;4.332;2022-11-20T03:22:17;38.88;;;17.05;;
13493;SDS011;6819;50.886;4.332;2022-11-20T03:24:43;39.75;;;16.75;;
13493;SDS011;6819;50.886;4.332;2022-11-20T03:27:09;33.63;;;15.98;;
13493;SDS011;6819;50.886;4.332;2022-11-20T03:29:35;42.10;;;15.98;;
13493;SDS011;6819;50.886;4.332;2022-11-20T03:32:01;42.53;;;17.25;;
13493;SDS011;6819;50.886;4.332;2022-11-20T03:34:27;40.88;;;16.52;;
13493;SDS011;6819;50.886;4.332;2022-11-20T03:36:53;45.95;;;17.45;;
13493;SDS011;6819;50.886;4.332;2022-11-20T03:39:19;36.45;;;16.60;;
13493;SDS011;6819;50.886;4.332;2022-11-20T03:41:45;40.42;;;17.27;;
13493;SDS011;6819;50.886;4.332;2022-11-20T03:44:11;40.95;;;16.13;;
13493;SDS011;6819;50.886;4.332;2022-11-20T03:46:37;38.33;;;15.68;;
13493;SDS011;6819;50.886;4.332;2022-11-20T03:49:03;38.00;;;16.80;;
13493;SDS011;6819;50.886;4.332;2022-11-20T03:51:30;41.38;;;16.90;;
13493;SDS011;6819;50.886;4.332;2022-11-20T03:53:58;36.25;;;15.82;;
13493;SDS011;6819;50.886;4.332;2022-11-20T03:56:29;39.83;;;17.20;;
13493;SDS011;6819;50.886;4.332;2022-11-20T03:58:55;39.05;;;16.42;;
13493;SDS011;6819;50.886;4.332;2022-11-20T04:01:31;42.10;;;17.42;;
13493;SDS011;6819;50.886;4.332;2022-11-20T04:03:57;37.53;;;16.17;;
13493;SDS011;6819;50.886;4.332;2022-11-20T04:06:25;41.45;;;17.45;;
13493;SDS011;6819;50.886;4.332;2022-11-20T04:08:54;38.83;;;15.75;;
13493;SDS011;6819;50.886;4.332;2022-11-20T04:11:30;43.10;;;16.75;;
13493;SDS011;6819;50.886;4.332;2022-11-20T04:13:57;31.67;;;15.48;;
13493;SDS011;6819;50.886;4.332;2022-11-20T04:16:24;46.53;;;17.50;;
13493;SDS011;6819;50.886;4.332;2022-11-20T04:18:54;41.30;;;16.45;;
13493;SDS011;6819;50.886;4.332;2022-11-20T04:21:20;46.28;;;16.85;;
13493;SDS011;6819;50.886;4.332;2022-11-20T04:23:46;42.97;;;16.17;;
13493;SDS011;6819;50.886;4.332;2022-11-20T04:26:12;40.78;;;15.98;;
13493;SDS011;6819;50.886;4.332;2022-11-20T04:28:38;36.97;;;14.32;;
13493;SDS011;6819;50.886;4.332;2022-11-20T04:31:05;38.30;;;16.45;;
13493;SDS011;6819;50.886;4.332;2022-11-20T04:33:32;35.30;;;15.13;;
13493;SDS011;6819;50.886;4.332;2022-11-20T04:36:06;38.83;;;16.20;;
13493;SDS011;6819;50.886;4.332;2022-11-20T04:38:32;41.85;;;15.82;;
13493;SDS011;6819;50.886;4.332;2022-11-20T04:40:59;42.50;;;18.00;;
13493;SDS011;6819;50.886;4.332;2022-11-20T04:43:25;51.90;;;17.15;;
13493;SDS011;6819;50.886;4.332;2022-11-20T04:45:52;43.40;;;17.15;;
13493;SDS011;6819;50.886;4.332;2022-11-20T04:48:19;49.72;;;17.75;;
13493;SDS011;6819;50.886;4.332;2022-11-20T04:50:45;51.22;;;18.38;;
13493;SDS011;6819;50.886;4.332;2022-11-20T04:53:11;43.95;;;15.93;;
13493;SDS011;6819;50.886;4.332;2022-11-20T04:55:37;46.78;;;16.77;;
13493;SDS011;6819;50.886;4.332;2022-11-20T04:58:03;44.50;;;16.50;;
13493;SDS011;6819;50.886;4.332;2022-11-20T05:00:29;44.30;;;17.33;;
13493;SDS011;6819;50.886;4.332;2022-11-20T05:02:55;46.85;;;16.90;;
13493;SDS011;6819;50.886;4.332;2022-11-20T05:05:21;56.63;;;19.27;;
13493;SDS011;6819;50.886;4.332;2022-11-20T05:07:47;53.22;;;17.17;;
13493;SDS011;6819;50.886;4.332;2022-11-20T05:10:13;49.85;;;17.38;;
13493;SDS011;6819;50.886;4.332;2022-11-20T05:12:39;45.22;;;17.17;;
13493;SDS011;6819;50.886;4.332;2022-11-20T05:15:05;46.20;;;17.13;;
13493;SDS011;6819;50.886;4.332;2022-11-20T05:17:32;45.78;;;16.67;;
13493;SDS011;6819;50.886;4.332;2022-11-20T05:19:58;47.80;;;16.45;;
13493;SDS011;6819;50.886;4.332;2022-11-20T05:22:25;43.75;;;16.23;;
13493;SDS011;6819;50.886;4.332;2022-11-20T05:24:51;48.10;;;18.15;;
13493;SDS011;6819;50.886;4.332;2022-11-20T05:27:17;46.15;;;17.02;;
13493;SDS011;6819;50.886;4.332;2022-11-20T05:29:43;47.88;;;17.90;;
13493;SDS011;6819;50.886;4.332;2022-11-20T05:32:09;43.70;;;17.85;;
13493;SDS011;6819;50.886;4.332;2022-11-20T05:34:35;46.55;;;17.80;;
13493;SDS011;6819;50.886;4.332;2022-11-20T05:37:02;45.13;;;17.50;;
13493;SDS011;6819;50.886;4.332;2022-11-20T05:39:28;47.15;;;18.38;;
13493;SDS011;6819;50.886;4.332;2022-11-20T05:41:54;45.13;;;17.75;;
13493;SDS011;6819;50.886;4.332;2022-11-20T05:44:39;55.20;;;18.65;;
13493;SDS011;6819;50.886;4.332;2022-11-20T05:47:05;51.95;;;18.40;;
13493;SDS011;6819;50.886;4.332;2022-11-20T05:49:31;47.65;;;18.05;;
13493;SDS011;6819;50.886;4.332;2022-11-20T05:51:57;54.08;;;18.35;;
13493;SDS011;6819;50.886;4.332;2022-11-20T05:54:23;49.92;;;19.10;;
13493;SDS011;6819;50.886;4.332;2022-11-20T05:56:49;53.10;;;19.83;;
13493;SDS011;6819;50.886;4.332;2022-11-20T05:59:15;49.10;;;16.90;;
13493;SDS011;6819;50.886;4.332;2022-11-20T06:01:41;53.30;;;18.27;;
13493;SDS011;6819;50.886;4.332;2022-11-20T06:04:07;56.67;;;21.23;;
13493;SDS011;6819;50.886;4.332;2022-11-20T06:06:33;56.53;;;19.70;;
13493;SDS011;6819;50.886;4.332;2022-11-20T06:08:59;55.13;;;18.45;;
13493;SDS011;6819;50.886;4.332;2022-11-20T06:11:25;62.72;;;19.15;;
13493;SDS011;6819;50.886;4.332;2022-11-20T06:13:51;65.63;;;19.77;;
13493;SDS011;6819;50.886;4.332;2022-11-20T06:16:18;60.55;;;18.95;;
13493;SDS011;6819;50.886;4.332;2022-11-20T06:18:45;58.42;;;19.02;;
13493;SDS011;6819;50.886;4.332;2022-11-20T06:21:12;64.32;;;19.00;;
13493;SDS011;6819;50.886;4.332;2022-11-20T06:23:39;57.10;;;17.88;;
13493;SDS011;6819;50.886;4.332;2022-11-20T06:26:06;58.30;;;20.40;;
13493;SDS011;6819;50.886;4.332;2022-11-20T06:28:32;54.00;;;19.42;;
13493;SDS011;6819;50.886;4.332;2022-11-20T06:30:58;65.07;;;19.42;;
13493;SDS011;6819;50.886;4.332;2022-11-20T06:33:25;62.40;;;18.88;;
13493;SDS011;6819;50.886;4.332;2022-11-20T06:35:51;67.72;;;18.80;;
13493;SDS011;6819;50.886;4.332;2022-11-20T06:38:17;59.90;;;18.85;;
13493;SDS011;6819;50.886;4.332;2022-11-20T06:40:43;59.92;;;19.27;;
13493;SDS011;6819;50.886;4.332;2022-11-20T06:43:09;57.15;;;18.10;;
13493;SDS011;6819;50.886;4.332;2022-11-20T06:45:36;63.95;;;19.00;;
13493;SDS011;6819;50.886;4.332;2022-11-20T06:48:02;65.55;;;18.60;;
13493;SDS011;6819;50.886;4.332;2022-11-20T06:50:28;57.30;;;19.70;;
13493;SDS011;6819;50.886;4.332;2022-11-20T06:52:55;62.63;;;19.52;;
13493;SDS011;6819;50.886;4.332;2022-11-20T06:55:21;60.80;;;19.63;;
13493;SDS011;6819;50.886;4.332;2022-11-20T06:57:47;52.78;;;19.88;;
13493;SDS011;6819;50.886;4.332;2022-11-20T07:00:13;60.85;;;18.80;;
13493;SDS011;6819;50.886;4.332;2022-11-20T07:02:39;59.33;;;18.42;;
13493;SDS011;6819;50.886;4.332;2022-11-20T07:05:05;60.60;;;20.42;;
13493;SDS011;6819;50.886;4.332;2022-11-20T07:07:31;61.80;;;19.02;;
13493;SDS011;6819;50.886;4.332;2022-11-20T07:09:57;65.05;;;19.77;;
13493;SDS011;6819;50.886;4.332;2022-11-20T07:12:23;55.83;;;19.35;;
13493;SDS011;6819;50.886;4.332;2022-11-20T07:14:49;58.28;;;19.20;;
13493;SDS011;6819;50.886;4.332;2022-11-20T07:17:15;54.88;;;17.20;;
13493;SDS011;6819;50.886;4.332;2022-11-20T07:19:41;55.78;;;18.48;;
13493;SDS011;6819;50.886;4.332;2022-11-20T07:22:08;47.75;;;17.08;;
13493;SDS011;6819;50.886;4.332;2022-11-20T07:24:34;58.03;;;20.77;;
13493;SDS011;6819;50.886;4.332;2022-11-20T07:27:00;67.55;;;19.98;;
13493;SDS011;6819;50.886;4.332;2022-11-20T07:29:26;53.70;;;18.35;;
13493;SDS011;6819;50.886;4.332;2022-11-20T07:31:52;60.38;;;18.27;;
13493;SDS011;6819;50.886;4.332;2022-11-20T07:34:20;56.30;;;18.63;;
13493;SDS011;6819;50.886;4.332;2022-11-20T07:36:46;51.30;;;16.60;;
13493;SDS011;6819;50.886;4.332;2022-11-20T07:39:12;55.45;;;18.15;;
13493;SDS011;6819;50.886;4.332;2022-11-20T07:41:38;50.85;;;17.63;;
13493;SDS011;6819;50.886;4.332;2022-11-20T07:44:04;45.25;;;16.40;;
13493;SDS011;6819;50.886;4.332;2022-11-20T07:46:30;49.47;;;18.00;;
13493;SDS011;6819;50.886;4.332;2022-11-20T07:48:56;52.63;;;18.40;;
13493;SDS011;6819;50.886;4.332;2022-11-20T07:51:23;64.47;;;18.60;;
13493;SDS011;6819;50.886;4.332;2022-11-20T07:53:52;48.55;;;17.45;;
13493;SDS011;6819;50.886;4.332;2022-11-20T07:56:18;49.25;;;16.45;;
13493;SDS011;6819;50.886;4.332;2022-11-20T07:58:44;54.50;;;17.65;;
13493;SDS011;6819;50.886;4.332;2022-11-20T08:01:10;51.28;;;17.48;;
13493;SDS011;6819;50.886;4.332;2022-11-20T08:03:36;50.40;;;16.65;;
13493;SDS011;6819;50.886;4.332;2022-11-20T08:06:03;51.13;;;17.25;;
13493;SDS011;6819;50.886;4.332;2022-11-20T08:08:29;55.08;;;16.88;;
13493;SDS011;6819;50.886;4.332;2022-11-20T08:10:58;54.35;;;16.23;;
13493;SDS011;6819;50.886;4.332;2022-11-20T08:13:42;54.38;;;17.52;;
13493;SDS011;6819;50.886;4.332;2022-11-20T08:16:27;55.80;;;18.95;;
13493;SDS011;6819;50.886;4.332;2022-11-20T08:18:54;58.75;;;16.90;;
13493;SDS011;6819;50.886;4.332;2022-11-20T08:21:20;49.95;;;15.30;;
13493;SDS011;6819;50.886;4.332;2022-11-20T08:23:46;51.40;;;16.95;;
13493;SDS011;6819;50.886;4.332;2022-11-20T08:26:12;56.33;;;16.55;;
13493;SDS011;6819;50.886;4.332;2022-11-20T08:28:38;57.45;;;18.25;;
13493;SDS011;6819;50.886;4.332;2022-11-20T08:31:04;59.70;;;18.13;;
13493;SDS011;6819;50.886;4.332;2022-11-20T08:33:30;54.53;;;16.88;;
13493;SDS011;6819;50.886;4.332;2022-11-20T08:36:00;47.10;;;16.98;;
13493;SDS011;6819;50.886;4.332;2022-11-20T08:38:27;44.42;;;15.70;;
13493;SDS011;6819;50.886;4.332;2022-11-20T08:40:56;44.03;;;16.05;;
13493;SDS011;6819;50.886;4.332;2022-11-20T08:43:40;56.15;;;16.58;;
13493;SDS011;6819;50.886;4.332;2022-11-20T08:46:06;51.60;;;17.27;;
13493;SDS011;6819;50.886;4.332;2022-11-20T08:48:32;49.22;;;15.75;;
13493;SDS011;6819;50.886;4.332;2022-11-20T08:50:58;51.08;;;16.48;;
13493;SDS011;6819;50.886;4.332;2022-11-20T08:53:25;52.75;;;16.35;;
13493;SDS011;6819;50.886;4.332;2022-11-20T08:55:51;55.90;;;17.70;;
13493;SDS011;6819;50.886;4.332;2022-11-20T08:58:17;59.10;;;17.63;;
13493;SDS011;6819;50.886;4.332;2022-11-20T09:00:43;54.65;;;17.55;;
13493;SDS011;6819;50.886;4.332;2022-11-20T09:03:09;53.47;;;17.55;;
13493;SDS011;6819;50.886;4.332;2022-11-20T09:05:35;58.95;;;17.52;;
13493;SDS011;6819;50.886;4.332;2022-11-20T09:08:01;53.00;;;17.13;;
13493;SDS011;6819;50.886;4.332;2022-11-20T09:10:27;51.63;;;16.63;;
13493;SDS011;6819;50.886;4.332;2022-11-20T09:12:54;57.78;;;18.08;;
13493;SDS011;6819;50.886;4.332;2022-11-20T09:15:20;59.33;;;19.48;;
13493;SDS011;6819;50.886;4.332;2022-11-20T09:17:56;53.25;;;16.73;;
13493;SDS011;6819;50.886;4.332;2022-11-20T09:20:23;61.75;;;19.27;;
13493;SDS011;6819;50.886;4.332;2022-11-20T09:22:49;62.00;;;18.55;;
13493;SDS011;6819;50.886;4.332;2022-11-20T09:25:15;55.45;;;18.00;;
13493;SDS011;6819;50.886;4.332;2022-11-20T09:27:41;48.83;;;16.70;;
13493;SDS011;6819;50.886;4.332;2022-11-20T09:30:09;56.03;;;18.33;;
13493;SDS011;6819;50.886;4.332;2022-11-20T09:32:35;47.95;;;15.98;;
13493;SDS011;6819;50.886;4.332;2022-11-20T09:35:01;47.28;;;16.80;;
13493;SDS011;6819;50.886;4.332;2022-11-20T09:37:27;68.57;;;23.83;;
13493;SDS011;6819;50.886;4.332;2022-11-20T09:39:53;50.05;;;16.27;;
13493;SDS011;6819;50.886;4.332;2022-11-20T09:47:52;43.22;;;15.13;;
13493;SDS011;6819;50.886;4.332;2022-11-20T09:53:04;38.65;;;15.23;;
13493;SDS011;6819;50.886;4.332;2022-11-20T09:55:30;45.63;;;17.02;;
13493;SDS011;6819;50.886;4.332;2022-11-20T09:57:57;47.58;;;16.63;;
13493;SDS011;6819;50.886;4.332;2022-11-20T10:00:23;40.80;;;15.02;;
13493;SDS011;6819;50.886;4.332;2022-11-20T10:03:03;47.65;;;16.58;;
13493;SDS011;6819;50.886;4.332;2022-11-20T10:20:30;45.22;;;17.13;;
13493;SDS011;6819;50.886;4.332;2022-11-20T10:23:03;36.45;;;15.45;;
13493;SDS011;6819;50.886;4.332;2022-11-20T10:25:39;44.50;;;15.20;;
13493;SDS011;6819;50.886;4.332;2022-11-20T10:31:06;30.35;;;11.60;;
13493;SDS011;6819;50.886;4.332;2022-11-20T10:33:38;29.60;;;9.32;;
13493;SDS011;6819;50.886;4.332;2022-11-20T10:38:35;26.08;;;10.95;;
13493;SDS011;6819;50.886;4.332;2022-11-20T10:41:02;21.25;;;8.38;;
13493;SDS011;6819;50.886;4.332;2022-11-20T10:46:22;26.42;;;8.32;;
13493;SDS011;6819;50.886;4.332;2022-11-20T10:48:49;16.17;;;7.43;;
13493;SDS011;6819;50.886;4.332;2022-11-20T10:51:18;20.00;;;7.05;;
13493;SDS011;6819;50.886;4.332;2022-11-20T10:56:21;16.55;;;6.03;;
13493;SDS011;6819;50.886;4.332;2022-11-20T10:58:56;13.32;;;5.90;;
13493;SDS011;6819;50.886;4.332;2022-11-20T11:01:26;13.00;;;6.15;;
13493;SDS011;6819;50.886;4.332;2022-11-20T11:03:52;7.53;;;4.55;;
13493;SDS011;6819;50.886;4.332;2022-11-20T11:08:45;15.13;;;5.32;;
13493;SDS011;6819;50.886;4.332;2022-11-20T11:11:26;8.93;;;4.10;;
13493;SDS011;6819;50.886;4.332;2022-11-20T11:13:53;11.30;;;4.68;;
13493;SDS011;6819;50.886;4.332;2022-11-20T11:16:29;8.18;;;4.60;;
13493;SDS011;6819;50.886;4.332;2022-11-20T11:19:12;12.48;;;5.07;;
13493;SDS011;6819;50.886;4.332;2022-11-20T11:21:38;12.73;;;4.50;;
13493;SDS011;6819;50.886;4.332;2022-11-20T11:24:14;10.63;;;4.43;;
13493;SDS011;6819;50.886;4.332;2022-11-20T11:26:41;12.45;;;4.45;;
13493;SDS011;6819;50.886;4.332;2022-11-20T11:29:17;12.05;;;4.78;;
13493;SDS011;6819;50.886;4.332;2022-11-20T11:31:43;13.25;;;4.57;;
13493;SDS011;6819;50.886;4.332;2022-11-20T11:36:35;9.85;;;3.83;;
13493;SDS011;6819;50.886;4.332;2022-11-20T11:39:02;9.80;;;4.03;;
13493;SDS011;6819;50.886;4.332;2022-11-20T11:41:30;10.98;;;4.75;;
13493;SDS011;6819;50.886;4.332;2022-11-20T11:44:21;8.48;;;3.83;;
13493;SDS011;6819;50.886;4.332;2022-11-20T11:47:26;12.35;;;4.82;;
13493;SDS011;6819;50.886;4.332;2022-11-20T11:52:56;11.65;;;5.35;;
13493;SDS011;6819;50.886;4.332;2022-11-20T11:55:25;11.10;;;5.40;;
13493;SDS011;6819;50.886;4.332;2022-11-20T11:58:02;13.50;;;6.63;;
13493;SDS011;6819;50.886;4.332;2022-11-20T12:00:30;15.60;;;7.65;;
13493;SDS011;6819;50.886;4.332;2022-11-20T12:03:12;14.07;;;6.53;;
13493;SDS011;6819;50.886;4.332;2022-11-20T12:05:40;18.45;;;6.70;;
13493;SDS011;6819;50.886;4.332;2022-11-20T12:11:06;11.27;;;4.13;;
13493;SDS011;6819;50.886;4.332;2022-11-20T12:16:04;13.85;;;4.60;;
13493;SDS011;6819;50.886;4.332;2022-11-20T12:18:30;10.63;;;3.72;;
13493;SDS011;6819;50.886;4.332;2022-11-20T12:21:01;10.70;;;3.72;;
13493;SDS011;6819;50.886;4.332;2022-11-20T12:28:38;9.38;;;4.05;;
13493;SDS011;6819;50.886;4.332;2022-11-20T12:34:02;9.57;;;3.70;;
13493;SDS011;6819;50.886;4.332;2022-11-20T12:41:40;9.68;;;4.07;;
13493;SDS011;6819;50.886;4.332;2022-11-20T12:44:38;7.15;;;3.17;;
13493;SDS011;6819;50.886;4.332;2022-11-20T12:47:33;10.48;;;3.80;;
13493;SDS011;6819;50.886;4.332;2022-11-20T12:50:14;9.70;;;3.53;;
13493;SDS011;6819;50.886;4.332;2022-11-20T12:58:17;5.60;;;3.07;;
13493;SDS011;6819;50.886;4.332;2022-11-20T13:00:47;5.70;;;2.92;;
13493;SDS011;6819;50.886;4.332;2022-11-20T13:03:31;11.43;;;3.58;;
13493;SDS011;6819;50.886;4.332;2022-11-20T13:06:18;8.88;;;3.28;;
13493;SDS011;6819;50.886;4.332;2022-11-20T13:08:49;7.72;;;3.35;;
13493;SDS011;6819;50.886;4.332;2022-11-20T13:14:11;7.88;;;3.33;;
13493;SDS011;6819;50.886;4.332;2022-11-20T13:16:42;9.95;;;3.45;;
13493;SDS011;6819;50.886;4.332;2022-11-20T13:19:11;4.47;;;2.85;;
13493;SDS011;6819;50.886;4.332;2022-11-20T13:21:39;9.80;;;2.95;;
13493;SDS011;6819;50.886;4.332;2022-11-20T13:24:27;5.88;;;2.78;;
13493;SDS011;6819;50.886;4.332;2022-11-20T13:27:02;8.00;;;3.40;;
13493;SDS011;6819;50.886;4.332;2022-11-20T13:29:29;6.95;;;2.85;;
13493;SDS011;6819;50.886;4.332;2022-11-20T13:32:05;7.38;;;3.20;;
13493;SDS011;6819;50.886;4.332;2022-11-20T13:34:32;8.40;;;3.50;;
13493;SDS011;6819;50.886;4.332;2022-11-20T13:36:58;7.70;;;3.50;;
13493;SDS011;6819;50.886;4.332;2022-11-20T13:39:32;9.40;;;3.55;;
13493;SDS011;6819;50.886;4.332;2022-11-20T13:42:03;7.72;;;3.92;;
13493;SDS011;6819;50.886;4.332;2022-11-20T13:44:55;7.70;;;3.13;;
13493;SDS011;6819;50.886;4.332;2022-11-20T13:47:27;7.30;;;3.60;;
13493;SDS011;6819;50.886;4.332;2022-11-20T13:49:54;6.13;;;3.22;;
13493;SDS011;6819;50.886;4.332;2022-11-20T13:52:29;5.55;;;3.38;;
13493;SDS011;6819;50.886;4.332;2022-11-20T13:55:40;8.10;;;3.50;;
13493;SDS011;6819;50.886;4.332;2022-11-20T13:57:58;8.48;;;4.53;;
13493;SDS011;6819;50.886;4.332;2022-11-20T14:00:27;8.93;;;4.05;;
13493;SDS011;6819;50.886;4.332;2022-11-20T14:05:36;7.03;;;3.40;;
13493;SDS011;6819;50.886;4.332;2022-11-20T14:08:06;12.43;;;4.00;;
13493;SDS011;6819;50.886;4.332;2022-11-20T14:10:32;9.00;;;4.72;;
13493;SDS011;6819;50.886;4.332;2022-11-20T14:13:09;5.70;;;3.45;;
13493;SDS011;6819;50.886;4.332;2022-11-20T14:15:35;5.68;;;3.35;;
13493;SDS011;6819;50.886;4.332;2022-11-20T14:18:11;8.52;;;3.35;;
13493;SDS011;6819;50.886;4.332;2022-11-20T14:20:38;6.20;;;3.85;;
13493;SDS011;6819;50.886;4.332;2022-11-20T14:23:04;4.78;;;3.03;;
13493;SDS011;6819;50.886;4.332;2022-11-20T14:25:30;11.13;;;3.40;;
13493;SDS011;6819;50.886;4.332;2022-11-20T14:30:26;5.03;;;2.60;;
13493;SDS011;6819;50.886;4.332;2022-11-20T14:32:54;6.45;;;2.95;;
13493;SDS011;6819;50.886;4.332;2022-11-20T14:35:25;5.75;;;2.70;;
13493;SDS011;6819;50.886;4.332;2022-11-20T14:37:52;5.40;;;3.40;;
13493;SDS011;6819;50.886;4.332;2022-11-20T14:40:26;4.22;;;2.67;;
13493;SDS011;6819;50.886;4.332;2022-11-20T14:42:52;5.03;;;2.60;;
13493;SDS011;6819;50.886;4.332;2022-11-20T14:45:19;3.70;;;2.53;;
13493;SDS011;6819;50.886;4.332;2022-11-20T14:47:45;5.25;;;2.70;;
13493;SDS011;6819;50.886;4.332;2022-11-20T14:50:13;4.20;;;2.78;;
13493;SDS011;6819;50.886;4.332;2022-11-20T14:52:39;5.35;;;3.28;;
13493;SDS011;6819;50.886;4.332;2022-11-20T14:55:24;7.25;;;3.10;;
13493;SDS011;6819;50.886;4.332;2022-11-20T14:57:54;5.65;;;3.17;;
13493;SDS011;6819;50.886;4.332;2022-11-20T15:00:21;4.10;;;2.70;;
13493;SDS011;6819;50.886;4.332;2022-11-20T15:02:48;7.60;;;2.83;;
13493;SDS011;6819;50.886;4.332;2022-11-20T15:05:14;6.22;;;3.40;;
13493;SDS011;6819;50.886;4.332;2022-11-20T15:07:43;4.80;;;3.03;;
13493;SDS011;6819;50.886;4.332;2022-11-20T15:12:40;4.72;;;2.92;;
13493;SDS011;6819;50.886;4.332;2022-11-20T15:15:08;4.55;;;2.70;;
13493;SDS011;6819;50.886;4.332;2022-11-20T15:17:36;3.45;;;2.75;;
13493;SDS011;6819;50.886;4.332;2022-11-20T15:20:03;4.43;;;2.80;;
13493;SDS011;6819;50.886;4.332;2022-11-20T15:22:35;6.32;;;3.00;;
13493;SDS011;6819;50.886;4.332;2022-11-20T15:25:01;2.97;;;2.35;;
13493;SDS011;6819;50.886;4.332;2022-11-20T15:27:27;4.20;;;3.33;;
13493;SDS011;6819;50.886;4.332;2022-11-20T15:29:54;8.35;;;3.15;;
13493;SDS011;6819;50.886;4.332;2022-11-20T15:32:20;4.47;;;2.70;;
13493;SDS011;6819;50.886;4.332;2022-11-20T15:34:46;7.28;;;3.40;;
13493;SDS011;6819;50.886;4.332;2022-11-20T15:37:12;5.15;;;3.35;;
13493;SDS011;6819;50.886;4.332;2022-11-20T15:39:38;6.20;;;3.38;;
13493;SDS011;6819;50.886;4.332;2022-11-20T15:42:04;9.77;;;3.40;;
13493;SDS011;6819;50.886;4.332;2022-11-20T15:44:30;7.75;;;3.53;;
13493;SDS011;6819;50.886;4.332;2022-11-20T15:46:56;5.82;;;3.63;;
13493;SDS011;6819;50.886;4.332;2022-11-20T15:49:22;6.75;;;3.20;;
13493;SDS011;6819;50.886;4.332;2022-11-20T15:51:49;9.48;;;3.58;;
13493;SDS011;6819;50.886;4.332;2022-11-20T15:54:16;10.18;;;3.45;;
13493;SDS011;6819;50.886;4.332;2022-11-20T15:56:45;7.57;;;3.50;;
13493;SDS011;6819;50.886;4.332;2022-11-20T15:59:11;8.35;;;3.13;;
13493;SDS011;6819;50.886;4.332;2022-11-20T16:01:39;11.10;;;2.90;;
13493;SDS011;6819;50.886;4.332;2022-11-20T16:04:09;7.85;;;2.95;;
13493;SDS011;6819;50.886;4.332;2022-11-20T16:06:36;12.85;;;3.30;;
13493;SDS011;6819;50.886;4.332;2022-11-20T16:09:02;9.75;;;3.63;;
13493;SDS011;6819;50.886;4.332;2022-11-20T16:11:28;11.18;;;2.70;;
13493;SDS011;6819;50.886;4.332;2022-11-20T16:13:55;12.38;;;2.67;;
13493;SDS011;6819;50.886;4.332;2022-11-20T16:16:39;10.07;;;3.30;;